Sunbeam, Idaho
Current Conditions -  °F | °C
As of 9:13 AM on Wednesday 28 Jan 2015 (Local Time) from KLLJ Reporting Station
Moderate Fog Moderate Fog  
Wind Chill: 29°   Ceiling: 100
Heat Index: 29°   Visibility: 0mi
Dew Point: 29°   Wind: 0mph
Humidity: 100%   Direction: NA
Pressure: 30.27"   Gusts: NA
Location:  44.3379°N, 114.824°W
Report Text: KLLJ 281613Z AUTO 00000KT M1/4SM FZFG VV001 M02/M02 A3027 RMK AO2 T10171017
Loading
Personal Weather Stations






























Interactive Weather Map New forecast layout! Learn more

10-Day Weather Forecast

Advertisements
Track Severe Weather on mobile